sensor_id;sensor_type;location;lat;lon;timestamp;P1;durP1;ratioP1;P2;durP2;ratioP2
19905;SDS011;10115;50.906;4.438;2022-08-27T00:01:22;9.53;;;3.40;;
19905;SDS011;10115;50.906;4.438;2022-08-27T00:03:49;3.10;;;2.83;;
19905;SDS011;10115;50.906;4.438;2022-08-27T00:06:18;3.33;;;2.97;;
19905;SDS011;10115;50.906;4.438;2022-08-27T00:08:45;2.83;;;2.67;;
19905;SDS011;10115;50.906;4.438;2022-08-27T00:11:12;3.37;;;3.13;;
19905;SDS011;10115;50.906;4.438;2022-08-27T00:13:38;3.57;;;2.90;;
19905;SDS011;10115;50.906;4.438;2022-08-27T00:16:05;2.87;;;2.67;;
19905;SDS011;10115;50.906;4.438;2022-08-27T00:18:33;3.07;;;2.70;;
19905;SDS011;10115;50.906;4.438;2022-08-27T00:20:59;6.67;;;3.03;;
19905;SDS011;10115;50.906;4.438;2022-08-27T00:23:26;4.03;;;3.47;;
19905;SDS011;10115;50.906;4.438;2022-08-27T00:25:52;5.47;;;2.87;;
19905;SDS011;10115;50.906;4.438;2022-08-27T00:28:18;4.40;;;3.00;;
19905;SDS011;10115;50.906;4.438;2022-08-27T00:30:43;5.73;;;2.73;;
19905;SDS011;10115;50.906;4.438;2022-08-27T00:33:09;3.00;;;2.60;;
19905;SDS011;10115;50.906;4.438;2022-08-27T00:35:36;2.73;;;2.53;;
19905;SDS011;10115;50.906;4.438;2022-08-27T00:38:02;2.97;;;2.77;;
19905;SDS011;10115;50.906;4.438;2022-08-27T00:40:29;6.97;;;3.77;;
19905;SDS011;10115;50.906;4.438;2022-08-27T00:42:57;4.37;;;2.70;;
19905;SDS011;10115;50.906;4.438;2022-08-27T00:45:23;3.10;;;2.77;;
19905;SDS011;10115;50.906;4.438;2022-08-27T00:47:52;4.80;;;3.10;;
19905;SDS011;10115;50.906;4.438;2022-08-27T00:50:24;2.60;;;2.50;;
19905;SDS011;10115;50.906;4.438;2022-08-27T00:53:23;2.20;;;2.10;;
19905;SDS011;10115;50.906;4.438;2022-08-27T00:55:57;11.73;;;3.53;;
19905;SDS011;10115;50.906;4.438;2022-08-27T00:58:30;3.57;;;3.23;;
19905;SDS011;10115;50.906;4.438;2022-08-27T01:01:00;3.13;;;2.93;;
19905;SDS011;10115;50.906;4.438;2022-08-27T01:03:26;2.57;;;2.47;;
19905;SDS011;10115;50.906;4.438;2022-08-27T01:05:52;4.00;;;3.10;;
19905;SDS011;10115;50.906;4.438;2022-08-27T01:08:22;4.03;;;3.30;;
19905;SDS011;10115;50.906;4.438;2022-08-27T01:10:50;2.77;;;2.60;;
19905;SDS011;10115;50.906;4.438;2022-08-27T01:13:18;3.77;;;2.60;;
19905;SDS011;10115;50.906;4.438;2022-08-27T01:15:49;2.93;;;2.60;;
19905;SDS011;10115;50.906;4.438;2022-08-27T01:18:17;2.77;;;2.57;;
19905;SDS011;10115;50.906;4.438;2022-08-27T01:21:04;7.73;;;3.20;;
19905;SDS011;10115;50.906;4.438;2022-08-27T01:26:41;3.20;;;2.97;;
19905;SDS011;10115;50.906;4.438;2022-08-27T01:29:07;2.53;;;2.43;;
19905;SDS011;10115;50.906;4.438;2022-08-27T01:31:33;7.57;;;2.93;;
19905;SDS011;10115;50.906;4.438;2022-08-27T01:34:00;2.80;;;2.60;;
19905;SDS011;10115;50.906;4.438;2022-08-27T01:36:28;7.83;;;2.57;;
19905;SDS011;10115;50.906;4.438;2022-08-27T01:38:54;2.87;;;2.43;;
19905;SDS011;10115;50.906;4.438;2022-08-27T01:41:20;2.73;;;2.53;;
19905;SDS011;10115;50.906;4.438;2022-08-27T01:43:46;3.20;;;2.90;;
19905;SDS011;10115;50.906;4.438;2022-08-27T01:46:12;3.90;;;3.53;;
19905;SDS011;10115;50.906;4.438;2022-08-27T01:48:38;2.97;;;2.77;;
19905;SDS011;10115;50.906;4.438;2022-08-27T01:51:03;2.97;;;2.80;;
19905;SDS011;10115;50.906;4.438;2022-08-27T01:53:29;5.13;;;3.00;;
19905;SDS011;10115;50.906;4.438;2022-08-27T01:55:55;9.67;;;3.07;;
19905;SDS011;10115;50.906;4.438;2022-08-27T01:58:23;4.93;;;2.87;;
19905;SDS011;10115;50.906;4.438;2022-08-27T02:00:53;3.47;;;2.80;;
19905;SDS011;10115;50.906;4.438;2022-08-27T02:03:22;2.97;;;2.77;;
19905;SDS011;10115;50.906;4.438;2022-08-27T02:05:49;3.43;;;3.10;;
19905;SDS011;10115;50.906;4.438;2022-08-27T02:08:16;3.30;;;2.90;;
19905;SDS011;10115;50.906;4.438;2022-08-27T02:10:42;2.63;;;2.43;;
19905;SDS011;10115;50.906;4.438;2022-08-27T02:13:09;3.43;;;2.73;;
19905;SDS011;10115;50.906;4.438;2022-08-27T02:15:37;2.73;;;2.60;;
19905;SDS011;10115;50.906;4.438;2022-08-27T02:18:05;4.40;;;3.80;;
19905;SDS011;10115;50.906;4.438;2022-08-27T02:20:31;2.77;;;2.67;;
19905;SDS011;10115;50.906;4.438;2022-08-27T02:22:58;3.60;;;2.90;;
19905;SDS011;10115;50.906;4.438;2022-08-27T02:25:25;3.47;;;3.27;;
19905;SDS011;10115;50.906;4.438;2022-08-27T02:27:53;5.07;;;3.90;;
19905;SDS011;10115;50.906;4.438;2022-08-27T02:30:21;2.83;;;2.70;;
19905;SDS011;10115;50.906;4.438;2022-08-27T02:32:48;3.23;;;2.97;;
19905;SDS011;10115;50.906;4.438;2022-08-27T02:35:16;2.60;;;2.40;;
19905;SDS011;10115;50.906;4.438;2022-08-27T02:37:42;2.70;;;2.60;;
19905;SDS011;10115;50.906;4.438;2022-08-27T02:40:08;3.17;;;2.97;;
19905;SDS011;10115;50.906;4.438;2022-08-27T02:42:35;3.27;;;3.03;;
19905;SDS011;10115;50.906;4.438;2022-08-27T02:45:02;3.70;;;2.80;;
19905;SDS011;10115;50.906;4.438;2022-08-27T02:47:31;3.00;;;2.70;;
19905;SDS011;10115;50.906;4.438;2022-08-27T02:49:58;9.40;;;3.47;;
19905;SDS011;10115;50.906;4.438;2022-08-27T02:52:25;4.67;;;2.73;;
19905;SDS011;10115;50.906;4.438;2022-08-27T02:54:51;2.87;;;2.67;;
19905;SDS011;10115;50.906;4.438;2022-08-27T02:57:17;2.97;;;2.73;;
19905;SDS011;10115;50.906;4.438;2022-08-27T02:59:43;4.67;;;3.03;;
19905;SDS011;10115;50.906;4.438;2022-08-27T03:02:09;4.83;;;3.17;;
19905;SDS011;10115;50.906;4.438;2022-08-27T03:04:35;3.10;;;2.90;;
19905;SDS011;10115;50.906;4.438;2022-08-27T03:07:01;2.67;;;2.57;;
19905;SDS011;10115;50.906;4.438;2022-08-27T03:09:27;3.53;;;3.23;;
19905;SDS011;10115;50.906;4.438;2022-08-27T03:11:52;3.93;;;3.17;;
19905;SDS011;10115;50.906;4.438;2022-08-27T03:14:19;3.63;;;2.93;;
19905;SDS011;10115;50.906;4.438;2022-08-27T03:16:44;3.40;;;3.13;;
19905;SDS011;10115;50.906;4.438;2022-08-27T03:19:10;3.10;;;2.90;;
19905;SDS011;10115;50.906;4.438;2022-08-27T03:21:36;5.13;;;3.20;;
19905;SDS011;10115;50.906;4.438;2022-08-27T03:24:03;2.60;;;2.50;;
19905;SDS011;10115;50.906;4.438;2022-08-27T03:26:29;4.23;;;3.30;;
19905;SDS011;10115;50.906;4.438;2022-08-27T03:28:56;3.67;;;2.93;;
19905;SDS011;10115;50.906;4.438;2022-08-27T03:31:23;4.10;;;3.40;;
19905;SDS011;10115;50.906;4.438;2022-08-27T03:33:55;6.10;;;2.90;;
19905;SDS011;10115;50.906;4.438;2022-08-27T03:36:26;6.23;;;2.67;;
19905;SDS011;10115;50.906;4.438;2022-08-27T03:38:53;2.97;;;2.77;;
19905;SDS011;10115;50.906;4.438;2022-08-27T03:41:20;3.07;;;2.90;;
19905;SDS011;10115;50.906;4.438;2022-08-27T03:43:46;3.80;;;3.50;;
19905;SDS011;10115;50.906;4.438;2022-08-27T03:46:13;3.73;;;3.00;;
19905;SDS011;10115;50.906;4.438;2022-08-27T03:48:39;4.50;;;3.33;;
19905;SDS011;10115;50.906;4.438;2022-08-27T03:51:05;4.17;;;3.87;;
19905;SDS011;10115;50.906;4.438;2022-08-27T03:53:34;3.47;;;3.17;;
19905;SDS011;10115;50.906;4.438;2022-08-27T03:56:00;7.23;;;3.53;;
19905;SDS011;10115;50.906;4.438;2022-08-27T03:58:26;6.37;;;3.30;;
19905;SDS011;10115;50.906;4.438;2022-08-27T04:00:51;5.93;;;3.03;;
19905;SDS011;10115;50.906;4.438;2022-08-27T04:03:17;3.40;;;3.20;;
19905;SDS011;10115;50.906;4.438;2022-08-27T04:05:43;3.97;;;3.63;;
19905;SDS011;10115;50.906;4.438;2022-08-27T04:08:09;4.20;;;3.63;;
19905;SDS011;10115;50.906;4.438;2022-08-27T04:10:38;3.27;;;3.07;;
19905;SDS011;10115;50.906;4.438;2022-08-27T04:13:04;8.40;;;4.30;;
19905;SDS011;10115;50.906;4.438;2022-08-27T04:15:30;3.60;;;3.30;;
19905;SDS011;10115;50.906;4.438;2022-08-27T04:17:56;4.43;;;4.00;;
19905;SDS011;10115;50.906;4.438;2022-08-27T04:20:22;3.40;;;3.13;;
19905;SDS011;10115;50.906;4.438;2022-08-27T04:22:48;3.50;;;3.30;;
19905;SDS011;10115;50.906;4.438;2022-08-27T04:25:14;3.37;;;3.10;;
19905;SDS011;10115;50.906;4.438;2022-08-27T04:27:39;3.80;;;3.53;;
19905;SDS011;10115;50.906;4.438;2022-08-27T04:30:05;6.80;;;3.40;;
19905;SDS011;10115;50.906;4.438;2022-08-27T04:32:33;4.97;;;3.63;;
19905;SDS011;10115;50.906;4.438;2022-08-27T04:34:59;3.67;;;3.37;;
19905;SDS011;10115;50.906;4.438;2022-08-27T04:37:28;6.47;;;4.47;;
19905;SDS011;10115;50.906;4.438;2022-08-27T04:39:55;3.93;;;3.63;;
19905;SDS011;10115;50.906;4.438;2022-08-27T04:42:21;4.63;;;3.60;;
19905;SDS011;10115;50.906;4.438;2022-08-27T04:44:47;4.20;;;3.80;;
19905;SDS011;10115;50.906;4.438;2022-08-27T04:47:14;6.30;;;3.33;;
19905;SDS011;10115;50.906;4.438;2022-08-27T04:49:40;9.63;;;3.50;;
19905;SDS011;10115;50.906;4.438;2022-08-27T04:52:07;6.63;;;3.50;;
19905;SDS011;10115;50.906;4.438;2022-08-27T04:54:33;5.27;;;3.07;;
19905;SDS011;10115;50.906;4.438;2022-08-27T04:57:00;6.53;;;4.20;;
19905;SDS011;10115;50.906;4.438;2022-08-27T04:59:27;13.13;;;3.90;;
19905;SDS011;10115;50.906;4.438;2022-08-27T05:01:54;3.97;;;3.63;;
19905;SDS011;10115;50.906;4.438;2022-08-27T05:04:19;5.80;;;4.07;;
19905;SDS011;10115;50.906;4.438;2022-08-27T05:06:45;7.00;;;4.47;;
19905;SDS011;10115;50.906;4.438;2022-08-27T05:09:13;5.27;;;4.77;;
19905;SDS011;10115;50.906;4.438;2022-08-27T05:11:39;3.80;;;3.50;;
19905;SDS011;10115;50.906;4.438;2022-08-27T05:14:06;10.67;;;4.63;;
19905;SDS011;10115;50.906;4.438;2022-08-27T05:16:33;4.07;;;3.73;;
19905;SDS011;10115;50.906;4.438;2022-08-27T05:19:03;4.30;;;3.90;;
19905;SDS011;10115;50.906;4.438;2022-08-27T05:21:33;7.20;;;4.17;;
19905;SDS011;10115;50.906;4.438;2022-08-27T05:24:01;3.83;;;3.33;;
19905;SDS011;10115;50.906;4.438;2022-08-27T05:26:28;4.17;;;3.87;;
19905;SDS011;10115;50.906;4.438;2022-08-27T05:28:56;8.67;;;3.50;;
19905;SDS011;10115;50.906;4.438;2022-08-27T05:31:24;5.30;;;3.30;;
19905;SDS011;10115;50.906;4.438;2022-08-27T05:33:50;4.90;;;3.67;;
19905;SDS011;10115;50.906;4.438;2022-08-27T05:36:20;4.20;;;3.90;;
19905;SDS011;10115;50.906;4.438;2022-08-27T05:38:50;4.50;;;4.13;;
19905;SDS011;10115;50.906;4.438;2022-08-27T05:41:17;4.07;;;3.50;;
19905;SDS011;10115;50.906;4.438;2022-08-27T05:43:45;5.97;;;3.93;;
19905;SDS011;10115;50.906;4.438;2022-08-27T05:46:12;15.83;;;3.90;;
19905;SDS011;10115;50.906;4.438;2022-08-27T05:48:41;3.67;;;3.47;;
19905;SDS011;10115;50.906;4.438;2022-08-27T05:51:11;4.10;;;3.80;;
19905;SDS011;10115;50.906;4.438;2022-08-27T05:54:02;3.50;;;3.30;;
19905;SDS011;10115;50.906;4.438;2022-08-27T05:56:32;6.93;;;3.70;;
19905;SDS011;10115;50.906;4.438;2022-08-27T05:58:59;7.37;;;3.60;;
19905;SDS011;10115;50.906;4.438;2022-08-27T06:01:44;3.90;;;3.53;;
19905;SDS011;10115;50.906;4.438;2022-08-27T06:04:12;7.57;;;3.60;;
19905;SDS011;10115;50.906;4.438;2022-08-27T06:06:39;3.90;;;3.60;;
19905;SDS011;10115;50.906;4.438;2022-08-27T06:09:06;8.43;;;3.83;;
19905;SDS011;10115;50.906;4.438;2022-08-27T06:11:33;4.17;;;3.50;;
19905;SDS011;10115;50.906;4.438;2022-08-27T06:13:59;3.70;;;3.37;;
19905;SDS011;10115;50.906;4.438;2022-08-27T06:16:25;3.30;;;3.10;;
19905;SDS011;10115;50.906;4.438;2022-08-27T06:18:51;4.57;;;3.10;;
19905;SDS011;10115;50.906;4.438;2022-08-27T06:21:19;5.97;;;3.97;;
19905;SDS011;10115;50.906;4.438;2022-08-27T06:23:45;3.77;;;3.50;;
19905;SDS011;10115;50.906;4.438;2022-08-27T06:26:13;3.43;;;3.23;;
19905;SDS011;10115;50.906;4.438;2022-08-27T06:28:40;7.13;;;3.47;;
19905;SDS011;10115;50.906;4.438;2022-08-27T06:33:33;3.30;;;3.07;;
19905;SDS011;10115;50.906;4.438;2022-08-27T06:35:59;4.07;;;3.47;;
19905;SDS011;10115;50.906;4.438;2022-08-27T06:38:26;3.30;;;3.20;;
19905;SDS011;10115;50.906;4.438;2022-08-27T06:40:53;4.00;;;3.70;;
19905;SDS011;10115;50.906;4.438;2022-08-27T06:43:20;4.37;;;3.70;;
19905;SDS011;10115;50.906;4.438;2022-08-27T06:45:46;3.90;;;3.67;;
19905;SDS011;10115;50.906;4.438;2022-08-27T06:48:12;6.03;;;3.37;;
19905;SDS011;10115;50.906;4.438;2022-08-27T06:50:38;5.63;;;3.63;;
19905;SDS011;10115;50.906;4.438;2022-08-27T06:53:05;4.00;;;3.67;;
19905;SDS011;10115;50.906;4.438;2022-08-27T06:55:31;6.67;;;2.93;;
19905;SDS011;10115;50.906;4.438;2022-08-27T06:58:03;7.10;;;3.77;;
19905;SDS011;10115;50.906;4.438;2022-08-27T07:00:29;6.27;;;3.47;;
19905;SDS011;10115;50.906;4.438;2022-08-27T07:02:55;3.70;;;3.10;;
19905;SDS011;10115;50.906;4.438;2022-08-27T07:05:21;5.37;;;3.17;;
19905;SDS011;10115;50.906;4.438;2022-08-27T07:07:46;5.47;;;3.10;;
19905;SDS011;10115;50.906;4.438;2022-08-27T07:10:12;2.93;;;2.47;;
19905;SDS011;10115;50.906;4.438;2022-08-27T07:12:38;5.10;;;3.60;;
19905;SDS011;10115;50.906;4.438;2022-08-27T07:15:04;2.70;;;2.50;;
19905;SDS011;10115;50.906;4.438;2022-08-27T07:17:30;3.43;;;3.13;;
19905;SDS011;10115;50.906;4.438;2022-08-27T07:19:55;3.20;;;3.00;;
19905;SDS011;10115;50.906;4.438;2022-08-27T07:22:26;4.07;;;2.90;;
19905;SDS011;10115;50.906;4.438;2022-08-27T07:24:53;4.83;;;2.97;;
19905;SDS011;10115;50.906;4.438;2022-08-27T07:27:20;3.10;;;2.80;;
19905;SDS011;10115;50.906;4.438;2022-08-27T07:29:46;3.00;;;2.80;;
19905;SDS011;10115;50.906;4.438;2022-08-27T07:32:12;3.07;;;2.87;;
19905;SDS011;10115;50.906;4.438;2022-08-27T07:34:38;2.90;;;2.70;;
19905;SDS011;10115;50.906;4.438;2022-08-27T07:37:03;6.07;;;3.00;;
19905;SDS011;10115;50.906;4.438;2022-08-27T07:39:29;4.13;;;3.07;;
19905;SDS011;10115;50.906;4.438;2022-08-27T07:41:55;2.90;;;2.73;;
19905;SDS011;10115;50.906;4.438;2022-08-27T07:44:40;2.93;;;2.80;;
19905;SDS011;10115;50.906;4.438;2022-08-27T07:47:06;2.70;;;2.50;;
19905;SDS011;10115;50.906;4.438;2022-08-27T07:49:32;3.10;;;2.80;;
19905;SDS011;10115;50.906;4.438;2022-08-27T07:51:59;2.80;;;2.60;;
19905;SDS011;10115;50.906;4.438;2022-08-27T07:54:26;3.57;;;2.40;;
19905;SDS011;10115;50.906;4.438;2022-08-27T07:56:52;3.13;;;2.83;;
19905;SDS011;10115;50.906;4.438;2022-08-27T07:59:18;4.13;;;2.50;;
19905;SDS011;10115;50.906;4.438;2022-08-27T08:01:44;2.67;;;2.57;;
19905;SDS011;10115;50.906;4.438;2022-08-27T08:04:13;2.80;;;2.50;;
19905;SDS011;10115;50.906;4.438;2022-08-27T08:06:39;2.30;;;2.20;;
19905;SDS011;10115;50.906;4.438;2022-08-27T08:09:05;3.23;;;2.60;;
19905;SDS011;10115;50.906;4.438;2022-08-27T08:11:31;2.33;;;2.20;;
19905;SDS011;10115;50.906;4.438;2022-08-27T08:13:58;1.97;;;1.97;;
19905;SDS011;10115;50.906;4.438;2022-08-27T08:16:25;2.07;;;1.97;;
19905;SDS011;10115;50.906;4.438;2022-08-27T08:18:52;2.07;;;1.97;;
19905;SDS011;10115;50.906;4.438;2022-08-27T08:21:17;2.20;;;2.10;;
19905;SDS011;10115;50.906;4.438;2022-08-27T08:23:43;2.20;;;2.10;;
19905;SDS011;10115;50.906;4.438;2022-08-27T08:26:09;2.27;;;2.17;;
19905;SDS011;10115;50.906;4.438;2022-08-27T08:28:36;2.50;;;2.27;;
19905;SDS011;10115;50.906;4.438;2022-08-27T08:31:03;2.43;;;2.23;;
19905;SDS011;10115;50.906;4.438;2022-08-27T08:33:29;3.17;;;2.10;;
19905;SDS011;10115;50.906;4.438;2022-08-27T08:36:07;2.30;;;2.20;;
19905;SDS011;10115;50.906;4.438;2022-08-27T08:38:34;1.80;;;1.80;;
19905;SDS011;10115;50.906;4.438;2022-08-27T08:41:01;4.93;;;3.10;;
19905;SDS011;10115;50.906;4.438;2022-08-27T08:46:24;3.20;;;2.50;;
19905;SDS011;10115;50.906;4.438;2022-08-27T08:49:01;2.37;;;2.20;;
19905;SDS011;10115;50.906;4.438;2022-08-27T08:51:52;2.83;;;2.57;;
19905;SDS011;10115;50.906;4.438;2022-08-27T08:54:21;2.53;;;2.43;;
19905;SDS011;10115;50.906;4.438;2022-08-27T08:57:02;3.47;;;2.83;;
19905;SDS011;10115;50.906;4.438;2022-08-27T08:59:39;2.50;;;2.30;;
19905;SDS011;10115;50.906;4.438;2022-08-27T09:02:11;2.57;;;2.37;;
19905;SDS011;10115;50.906;4.438;2022-08-27T09:04:39;2.37;;;2.27;;
19905;SDS011;10115;50.906;4.438;2022-08-27T09:07:15;2.10;;;2.00;;
19905;SDS011;10115;50.906;4.438;2022-08-27T09:10:21;2.30;;;2.20;;
19905;SDS011;10115;50.906;4.438;2022-08-27T09:13:01;2.67;;;2.43;;
19905;SDS011;10115;50.906;4.438;2022-08-27T09:15:30;2.73;;;2.00;;
19905;SDS011;10115;50.906;4.438;2022-08-27T09:18:09;2.53;;;2.33;;
19905;SDS011;10115;50.906;4.438;2022-08-27T09:20:36;2.43;;;2.33;;
19905;SDS011;10115;50.906;4.438;2022-08-27T09:25:50;2.60;;;2.47;;
19905;SDS011;10115;50.906;4.438;2022-08-27T09:28:22;9.33;;;2.40;;
19905;SDS011;10115;50.906;4.438;2022-08-27T09:31:10;2.30;;;2.10;;
19905;SDS011;10115;50.906;4.438;2022-08-27T09:33:39;2.20;;;2.10;;
19905;SDS011;10115;50.906;4.438;2022-08-27T09:36:07;2.00;;;1.90;;
19905;SDS011;10115;50.906;4.438;2022-08-27T09:38:35;2.23;;;2.13;;
19905;SDS011;10115;50.906;4.438;2022-08-27T09:41:05;2.90;;;2.63;;
19905;SDS011;10115;50.906;4.438;2022-08-27T09:43:36;9.07;;;2.20;;
19905;SDS011;10115;50.906;4.438;2022-08-27T09:46:20;3.20;;;2.07;;
19905;SDS011;10115;50.906;4.438;2022-08-27T09:48:47;2.37;;;2.10;;
19905;SDS011;10115;50.906;4.438;2022-08-27T09:51:15;2.13;;;2.03;;
19905;SDS011;10115;50.906;4.438;2022-08-27T09:56:39;2.70;;;2.50;;
19905;SDS011;10115;50.906;4.438;2022-08-27T09:59:19;2.17;;;2.03;;
19905;SDS011;10115;50.906;4.438;2022-08-27T10:04:34;2.27;;;2.10;;
19905;SDS011;10115;50.906;4.438;2022-08-27T10:07:56;3.93;;;2.17;;
19905;SDS011;10115;50.906;4.438;2022-08-27T10:15:11;2.33;;;2.23;;
19905;SDS011;10115;50.906;4.438;2022-08-27T10:20:23;2.20;;;2.10;;
19905;SDS011;10115;50.906;4.438;2022-08-27T10:26:04;1.73;;;1.73;;
19905;SDS011;10115;50.906;4.438;2022-08-27T10:31:43;1.37;;;1.37;;
19905;SDS011;10115;50.906;4.438;2022-08-27T10:39:25;1.30;;;1.30;;
19905;SDS011;10115;50.906;4.438;2022-08-27T10:48:07;1.47;;;1.47;;
19905;SDS011;10115;50.906;4.438;2022-08-27T10:56:07;14.40;;;3.83;;
19905;SDS011;10115;50.906;4.438;2022-08-27T11:03:59;1.17;;;1.17;;
19905;SDS011;10115;50.906;4.438;2022-08-27T11:09:21;1.00;;;1.00;;
19905;SDS011;10115;50.906;4.438;2022-08-27T11:12:01;1.20;;;1.20;;
19905;SDS011;10115;50.906;4.438;2022-08-27T11:17:24;0.98;;;0.98;;
19905;SDS011;10115;50.906;4.438;2022-08-27T11:19:56;1.10;;;1.10;;
19905;SDS011;10115;50.906;4.438;2022-08-27T11:27:39;1.10;;;1.10;;
19905;SDS011;10115;50.906;4.438;2022-08-27T11:30:08;1.10;;;1.10;;
19905;SDS011;10115;50.906;4.438;2022-08-27T11:32:53;1.10;;;1.10;;
19905;SDS011;10115;50.906;4.438;2022-08-27T11:41:38;1.13;;;1.13;;
19905;SDS011;10115;50.906;4.438;2022-08-27T11:44:29;1.20;;;1.20;;
19905;SDS011;10115;50.906;4.438;2022-08-27T11:46:57;1.30;;;1.30;;
19905;SDS011;10115;50.906;4.438;2022-08-27T11:52:34;1.33;;;1.33;;
19905;SDS011;10115;50.906;4.438;2022-08-27T12:00:47;1.30;;;1.30;;
19905;SDS011;10115;50.906;4.438;2022-08-27T12:13:43;1.30;;;1.30;;
19905;SDS011;10115;50.906;4.438;2022-08-27T12:21:34;1.70;;;1.70;;
19905;SDS011;10115;50.906;4.438;2022-08-27T12:29:33;1.50;;;1.50;;
19905;SDS011;10115;50.906;4.438;2022-08-27T12:32:28;1.20;;;1.20;;
19905;SDS011;10115;50.906;4.438;2022-08-27T12:37:52;1.10;;;1.10;;
19905;SDS011;10115;50.906;4.438;2022-08-27T12:40:42;1.40;;;1.40;;
19905;SDS011;10115;50.906;4.438;2022-08-27T12:43:16;1.30;;;1.30;;
19905;SDS011;10115;50.906;4.438;2022-08-27T12:45:52;1.30;;;1.30;;
19905;SDS011;10115;50.906;4.438;2022-08-27T12:48:23;1.10;;;1.10;;
19905;SDS011;10115;50.906;4.438;2022-08-27T12:50:52;1.13;;;1.13;;
19905;SDS011;10115;50.906;4.438;2022-08-27T13:04:03;1.30;;;1.30;;
19905;SDS011;10115;50.906;4.438;2022-08-27T13:08:59;1.20;;;1.20;;
19905;SDS011;10115;50.906;4.438;2022-08-27T13:11:33;1.10;;;1.10;;
19905;SDS011;10115;50.906;4.438;2022-08-27T13:14:09;1.67;;;1.60;;
19905;SDS011;10115;50.906;4.438;2022-08-27T13:16:38;1.20;;;1.20;;
19905;SDS011;10115;50.906;4.438;2022-08-27T13:19:16;1.20;;;1.20;;
19905;SDS011;10115;50.906;4.438;2022-08-27T13:21:48;1.30;;;1.30;;
19905;SDS011;10115;50.906;4.438;2022-08-27T13:24:18;1.10;;;1.10;;
19905;SDS011;10115;50.906;4.438;2022-08-27T13:26:50;1.20;;;1.20;;
19905;SDS011;10115;50.906;4.438;2022-08-27T13:29:17;1.20;;;1.20;;
19905;SDS011;10115;50.906;4.438;2022-08-27T13:31:43;1.27;;;1.27;;
19905;SDS011;10115;50.906;4.438;2022-08-27T13:34:09;1.53;;;1.43;;
19905;SDS011;10115;50.906;4.438;2022-08-27T13:37:40;1.10;;;1.10;;
19905;SDS011;10115;50.906;4.438;2022-08-27T13:39:50;2.30;;;2.20;;
19905;SDS011;10115;50.906;4.438;2022-08-27T13:42:18;1.27;;;1.27;;
19905;SDS011;10115;50.906;4.438;2022-08-27T13:44:43;1.20;;;1.20;;
19905;SDS011;10115;50.906;4.438;2022-08-27T13:47:17;1.13;;;1.13;;
19905;SDS011;10115;50.906;4.438;2022-08-27T13:49:43;1.17;;;1.17;;
19905;SDS011;10115;50.906;4.438;2022-08-27T13:54:59;1.33;;;1.33;;
19905;SDS011;10115;50.906;4.438;2022-08-27T13:57:30;1.10;;;1.10;;
19905;SDS011;10115;50.906;4.438;2022-08-27T14:00:18;1.30;;;1.30;;
19905;SDS011;10115;50.906;4.438;2022-08-27T14:02:55;1.20;;;1.20;;
19905;SDS011;10115;50.906;4.438;2022-08-27T14:07:49;1.30;;;1.30;;
19905;SDS011;10115;50.906;4.438;2022-08-27T14:10:32;1.20;;;1.20;;
19905;SDS011;10115;50.906;4.438;2022-08-27T14:13:02;1.33;;;1.33;;
19905;SDS011;10115;50.906;4.438;2022-08-27T14:18:18;1.33;;;1.33;;
19905;SDS011;10115;50.906;4.438;2022-08-27T14:20:47;1.50;;;1.50;;
19905;SDS011;10115;50.906;4.438;2022-08-27T14:23:13;1.37;;;1.37;;
19905;SDS011;10115;50.906;4.438;2022-08-27T14:25:39;1.10;;;1.10;;
19905;SDS011;10115;50.906;4.438;2022-08-27T14:28:05;1.20;;;1.20;;
19905;SDS011;10115;50.906;4.438;2022-08-27T14:30:31;1.10;;;1.10;;
19905;SDS011;10115;50.906;4.438;2022-08-27T14:32:57;1.10;;;1.10;;
19905;SDS011;10115;50.906;4.438;2022-08-27T14:35:24;1.00;;;1.00;;
19905;SDS011;10115;50.906;4.438;2022-08-27T14:37:50;1.20;;;1.20;;
19905;SDS011;10115;50.906;4.438;2022-08-27T14:40:16;1.75;;;1.65;;
19905;SDS011;10115;50.906;4.438;2022-08-27T14:42:42;1.10;;;1.10;;
19905;SDS011;10115;50.906;4.438;2022-08-27T14:45:08;1.50;;;1.50;;
19905;SDS011;10115;50.906;4.438;2022-08-27T14:47:35;1.20;;;1.20;;
19905;SDS011;10115;50.906;4.438;2022-08-27T14:50:02;1.30;;;1.30;;
19905;SDS011;10115;50.906;4.438;2022-08-27T14:52:29;1.10;;;1.10;;
19905;SDS011;10115;50.906;4.438;2022-08-27T14:54:54;1.20;;;1.20;;
19905;SDS011;10115;50.906;4.438;2022-08-27T14:57:20;1.10;;;1.10;;
19905;SDS011;10115;50.906;4.438;2022-08-27T14:59:46;1.40;;;1.40;;
19905;SDS011;10115;50.906;4.438;2022-08-27T15:02:12;1.20;;;1.20;;
19905;SDS011;10115;50.906;4.438;2022-08-27T15:04:38;1.20;;;1.20;;
19905;SDS011;10115;50.906;4.438;2022-08-27T15:07:04;1.20;;;1.20;;
19905;SDS011;10115;50.906;4.438;2022-08-27T15:09:30;1.40;;;1.40;;
19905;SDS011;10115;50.906;4.438;2022-08-27T15:11:56;1.17;;;1.17;;
19905;SDS011;10115;50.906;4.438;2022-08-27T15:14:24;1.20;;;1.20;;
19905;SDS011;10115;50.906;4.438;2022-08-27T15:16:52;1.20;;;1.20;;
19905;SDS011;10115;50.906;4.438;2022-08-27T15:19:19;1.20;;;1.20;;
19905;SDS011;10115;50.906;4.438;2022-08-27T15:21:46;1.20;;;1.20;;
19905;SDS011;10115;50.906;4.438;2022-08-27T15:24:15;1.57;;;1.57;;
19905;SDS011;10115;50.906;4.438;2022-08-27T15:26:47;1.23;;;1.23;;
19905;SDS011;10115;50.906;4.438;2022-08-27T15:29:14;1.20;;;1.20;;
19905;SDS011;10115;50.906;4.438;2022-08-27T15:31:40;2.90;;;2.70;;
19905;SDS011;10115;50.906;4.438;2022-08-27T15:34:07;1.20;;;1.20;;
19905;SDS011;10115;50.906;4.438;2022-08-27T15:36:33;1.30;;;1.30;;
19905;SDS011;10115;50.906;4.438;2022-08-27T15:38:58;1.30;;;1.30;;
19905;SDS011;10115;50.906;4.438;2022-08-27T15:41:24;1.33;;;1.33;;
19905;SDS011;10115;50.906;4.438;2022-08-27T15:43:50;1.20;;;1.20;;
19905;SDS011;10115;50.906;4.438;2022-08-27T15:46:16;1.20;;;1.20;;
19905;SDS011;10115;50.906;4.438;2022-08-27T15:48:42;1.23;;;1.23;;
19905;SDS011;10115;50.906;4.438;2022-08-27T15:51:08;1.20;;;1.20;;
19905;SDS011;10115;50.906;4.438;2022-08-27T15:53:37;1.20;;;1.20;;
19905;SDS011;10115;50.906;4.438;2022-08-27T15:56:04;1.60;;;1.60;;
19905;SDS011;10115;50.906;4.438;2022-08-27T15:58:32;1.20;;;1.20;;
19905;SDS011;10115;50.906;4.438;2022-08-27T16:01:01;1.30;;;1.30;;
19905;SDS011;10115;50.906;4.438;2022-08-27T16:03:39;1.30;;;1.30;;
19905;SDS011;10115;50.906;4.438;2022-08-27T16:06:07;1.20;;;1.20;;
19905;SDS011;10115;50.906;4.438;2022-08-27T16:08:33;1.20;;;1.20;;
19905;SDS011;10115;50.906;4.438;2022-08-27T16:10:58;1.10;;;1.10;;
19905;SDS011;10115;50.906;4.438;2022-08-27T16:13:24;1.20;;;1.20;;
19905;SDS011;10115;50.906;4.438;2022-08-27T16:15:51;1.30;;;1.30;;
19905;SDS011;10115;50.906;4.438;2022-08-27T16:18:19;1.17;;;1.17;;
19905;SDS011;10115;50.906;4.438;2022-08-27T16:20:50;1.20;;;1.20;;
19905;SDS011;10115;50.906;4.438;2022-08-27T16:23:17;1.20;;;1.20;;
19905;SDS011;10115;50.906;4.438;2022-08-27T16:25:44;1.27;;;1.27;;
19905;SDS011;10115;50.906;4.438;2022-08-27T16:28:10;1.30;;;1.30;;
19905;SDS011;10115;50.906;4.438;2022-08-27T16:30:37;1.30;;;1.30;;
19905;SDS011;10115;50.906;4.438;2022-08-27T16:33:03;1.20;;;1.20;;
19905;SDS011;10115;50.906;4.438;2022-08-27T16:35:29;1.63;;;1.50;;
19905;SDS011;10115;50.906;4.438;2022-08-27T16:37:55;1.20;;;1.20;;
19905;SDS011;10115;50.906;4.438;2022-08-27T16:40:21;1.20;;;1.20;;
19905;SDS011;10115;50.906;4.438;2022-08-27T16:42:50;1.30;;;1.30;;
19905;SDS011;10115;50.906;4.438;2022-08-27T16:45:17;1.30;;;1.30;;
19905;SDS011;10115;50.906;4.438;2022-08-27T16:47:46;1.33;;;1.33;;
19905;SDS011;10115;50.906;4.438;2022-08-27T16:50:30;1.20;;;1.20;;
19905;SDS011;10115;50.906;4.438;2022-08-27T16:53:09;1.60;;;1.60;;
19905;SDS011;10115;50.906;4.438;2022-08-27T16:55:38;1.10;;;1.10;;
19905;SDS011;10115;50.906;4.438;2022-08-27T16:58:14;1.20;;;1.20;;
19905;SDS011;10115;50.906;4.438;2022-08-27T17:00:43;1.30;;;1.30;;
19905;SDS011;10115;50.906;4.438;2022-08-27T17:03:10;1.30;;;1.30;;